Time;durP1;ratioP1;P1;durP2;ratioP2;P2;SDS_P1;SDS_P2;PMS_P1;PMS_P2;Temp;Humidity;BMP_temperature;BMP_pressure;BME280_temperature;BME280_humidity;BME280_pressure;Samples;Min_cycle;Max_cycle;Signal;HPM_P1;HPM_P2
2022/12/10 00:01:28;;;;;;;56.65;20.05;;;-1.50;99.90;;;;;;5074626;28;20040;-78
2022/12/10 00:03:54;;;;;;;62.70;20.30;;;-1.60;99.90;;;;;;5074131;28;20487;-78
2022/12/10 00:06:25;;;;;;;56.95;19.63;;;-1.50;99.90;;;;;;5039627;28;20053;-79
2022/12/10 00:08:51;;;;;;;53.75;19.00;;;-1.60;99.90;;;;;;5056744;28;20057;-77
2022/12/10 00:11:19;;;;;;;52.58;19.27;;;-0.60;99.90;;;;;;5040114;28;20057;-76
2022/12/10 00:13:46;;;;;;;55.97;19.60;;;-1.60;99.90;;;;;;5040157;28;20044;-76
2022/12/10 00:16:14;;;;;;;54.25;19.25;;;-1.50;99.90;;;;;;5041830;28;20503;-77
2022/12/10 00:18:41;;;;;;;58.65;19.55;;;-1.50;99.90;;;;;;5025562;28;20048;-78
2022/12/10 00:21:10;;;;;;;58.95;20.40;;;-1.50;99.90;;;;;;5042001;28;20080;-77
2022/12/10 00:23:37;;;;;;;56.33;19.00;;;-1.50;99.90;;;;;;5056618;28;20151;-78
2022/12/10 00:26:05;;;;;;;55.72;19.95;;;-0.70;99.90;;;;;;5039878;28;20037;-78
2022/12/10 00:28:32;;;;;;;57.63;19.05;;;-1.50;99.90;;;;;;5039483;28;20044;-78
2022/12/10 00:31:10;;;;;;;58.17;19.02;;;-0.60;99.90;;;;;;5056361;28;20100;-79
2022/12/10 00:33:36;;;;;;;52.03;19.33;;;-1.50;99.90;;;;;;5073718;28;20052;-79
2022/12/10 00:36:08;;;;;;;55.50;21.05;;;-1.40;99.90;;;;;;5055739;28;20044;-78
2022/12/10 00:38:35;;;;;;;58.33;19.65;;;-1.40;99.90;;;;;;5073740;28;20289;-78
2022/12/10 00:41:01;;;;;;;53.58;19.80;;;-1.20;99.90;;;;;;5040243;28;20044;-79
2022/12/10 00:43:27;;;;;;;59.83;19.75;;;-0.80;99.90;;;;;;5008188;28;20041;-77
2022/12/10 00:45:54;;;;;;;56.97;20.92;;;-1.40;99.90;;;;;;5024878;28;20131;-78
2022/12/10 00:48:20;;;;;;;56.40;19.60;;;-1.30;99.90;;;;;;5040865;28;20448;-78
2022/12/10 00:51:02;;;;;;;53.53;19.30;;;-1.20;99.90;;;;;;5055871;28;20040;-78
2022/12/10 00:53:30;;;;;;;55.05;20.25;;;-1.20;99.90;;;;;;5039255;28;20071;-77
2022/12/10 00:55:57;;;;;;;55.92;19.95;;;-1.10;99.90;;;;;;5039723;28;20056;-78
2022/12/10 00:58:23;;;;;;;64.50;21.40;;;-1.10;99.90;;;;;;5055612;28;20498;-79
2022/12/10 01:00:49;;;;;;;57.13;20.83;;;-1.10;99.90;;;;;;5039717;28;20051;-78
2022/12/10 01:03:15;;;;;;;61.08;20.63;;;-1.00;99.90;;;;;;5022639;28;20131;-78
2022/12/10 01:05:41;;;;;;;60.55;21.30;;;-1.00;99.90;;;;;;5055571;28;20048;-79
2022/12/10 01:08:07;;;;;;;59.20;21.20;;;-1.00;99.90;;;;;;5073779;28;20407;-79
2022/12/10 01:10:34;;;;;;;62.97;21.30;;;-0.90;99.90;;;;;;5022922;28;20056;-79
2022/12/10 01:13:00;;;;;;;61.45;20.75;;;-0.90;99.90;;;;;;5023162;28;20044;-79
2022/12/10 01:15:26;;;;;;;62.22;21.08;;;0.10;99.90;;;;;;5039290;28;20044;-79
2022/12/10 01:17:51;;;;;;;61.33;20.98;;;-0.90;99.90;;;;;;5039226;28;20048;-79
2022/12/10 01:20:17;;;;;;;57.92;20.27;;;-0.90;99.90;;;;;;5055615;28;20105;-79
2022/12/10 01:22:43;;;;;;;64.05;21.27;;;-0.80;99.90;;;;;;5038507;28;20080;-79
2022/12/10 01:25:09;;;;;;;57.28;20.73;;;-0.80;99.90;;;;;;5023000;28;20040;-79
2022/12/10 01:27:35;;;;;;;57.10;19.83;;;-0.80;99.90;;;;;;5022849;28;20044;-78
2022/12/10 01:30:01;;;;;;;60.17;21.73;;;-0.80;99.90;;;;;;5022855;28;20671;-79
2022/12/10 01:32:27;;;;;;;60.65;20.52;;;-0.90;99.90;;;;;;5022830;28;20125;-82
2022/12/10 01:34:53;;;;;;;58.38;20.27;;;-0.90;99.90;;;;;;5040073;28;20044;-79
2022/12/10 01:37:19;;;;;;;60.03;21.00;;;-1.00;99.90;;;;;;5023865;28;20052;-79
2022/12/10 01:39:45;;;;;;;58.97;21.95;;;-1.00;99.90;;;;;;5039691;28;20159;-78
2022/12/10 01:42:13;;;;;;;58.10;20.42;;;-1.00;99.90;;;;;;5039535;28;20102;-77
2022/12/10 01:44:42;;;;;;;62.40;20.73;;;-1.00;99.90;;;;;;5056287;28;20080;-78
2022/12/10 01:47:09;;;;;;;60.85;21.70;;;-1.10;99.90;;;;;;5039505;28;20498;-78
2022/12/10 01:49:38;;;;;;;68.70;22.38;;;-1.10;99.90;;;;;;5040430;28;20071;-77
2022/12/10 01:52:09;;;;;;;58.28;21.50;;;-1.10;99.90;;;;;;5040501;28;20091;-81
2022/12/10 01:54:38;;;;;;;67.30;22.60;;;-1.20;99.90;;;;;;5058179;28;20048;-81
2022/12/10 01:57:18;;;;;;;60.35;21.35;;;-1.20;99.90;;;;;;5040299;28;20056;-81
2022/12/10 01:59:51;;;;;;;59.75;21.00;;;-0.50;99.90;;;;;;5040466;28;20111;-81
2022/12/10 02:02:30;;;;;;;59.78;20.60;;;-0.20;99.90;;;;;;5040808;28;20389;-82
2022/12/10 02:05:11;;;;;;;66.25;21.42;;;-1.30;99.90;;;;;;5044317;28;20084;-80
2022/12/10 02:07:52;;;;;;;68.97;23.05;;;-1.30;99.90;;;;;;5043567;28;20059;-77
2022/12/10 02:10:21;;;;;;;66.90;23.67;;;-1.30;99.90;;;;;;5044575;28;20064;-77
2022/12/10 02:12:54;;;;;;;63.78;21.77;;;-1.30;99.90;;;;;;5043141;28;20074;-77
2022/12/10 02:15:32;;;;;;;70.63;22.13;;;-1.30;99.90;;;;;;5060032;28;20502;-81
2022/12/10 02:18:06;;;;;;;70.03;23.58;;;-1.40;99.90;;;;;;5043564;28;20112;-79
2022/12/10 02:20:56;;;;;;;70.68;23.05;;;-1.40;99.90;;;;;;5043451;28;20076;-78
2022/12/10 02:23:36;;;;;;;69.30;21.83;;;-1.40;99.90;;;;;;5059735;28;20529;-78
2022/12/10 02:26:13;;;;;;;70.07;22.20;;;-1.40;99.90;;;;;;5043290;28;20428;-79
2022/12/10 02:28:45;;;;;;;69.68;22.98;;;-1.40;99.90;;;;;;5043105;28;20368;-78
2022/12/10 02:31:14;;;;;;;67.60;22.83;;;-1.50;99.90;;;;;;5043533;28;20041;-79
2022/12/10 02:33:45;;;;;;;65.90;21.70;;;-1.40;99.90;;;;;;5060088;28;20105;-78
2022/12/10 02:36:13;;;;;;;79.20;23.83;;;-1.50;99.90;;;;;;5043400;28;20059;-79
2022/12/10 02:38:41;;;;;;;67.88;22.25;;;-1.40;99.90;;;;;;5043000;28;20053;-79
2022/12/10 02:41:16;;;;;;;72.22;23.75;;;-0.20;99.90;;;;;;5060235;28;20194;-77
2022/12/10 02:43:46;;;;;;;73.15;23.27;;;-1.50;99.90;;;;;;5043161;28;20372;-78
2022/12/10 02:46:12;;;;;;;65.97;22.17;;;-1.50;99.90;;;;;;5043401;28;20055;-78
2022/12/10 02:48:41;;;;;;;74.25;24.73;;;-1.40;99.90;;;;;;5042610;28;20044;-77
2022/12/10 02:51:07;;;;;;;77.50;24.15;;;-1.50;99.90;;;;;;5043057;28;20121;-78
2022/12/10 02:53:33;;;;;;;71.68;24.00;;;-1.40;99.90;;;;;;5059678;28;20055;-79
2022/12/10 02:56:21;;;;;;;71.53;22.70;;;-1.50;99.90;;;;;;5009731;28;20041;-79
2022/12/10 02:59:19;;;;;;;77.80;23.55;;;-1.40;99.90;;;;;;5043009;28;20044;-79
2022/12/10 03:02:10;;;;;;;77.82;24.20;;;-1.40;99.90;;;;;;5042142;28;20052;-77
2022/12/10 03:04:55;;;;;;;81.32;24.65;;;-1.40;99.90;;;;;;5041834;28;20044;-76
2022/12/10 03:07:35;;;;;;;72.15;22.15;;;-1.40;99.90;;;;;;5041063;28;20153;-77
2022/12/10 03:10:33;;;;;;;73.88;24.60;;;-0.50;99.90;;;;;;5041197;28;20083;-76
2022/12/10 03:13:03;;;;;;;77.53;23.42;;;-1.50;99.90;;;;;;5057491;28;20053;-75
2022/12/10 03:15:33;;;;;;;75.60;22.30;;;-0.40;99.90;;;;;;5041268;28;20191;-75
2022/12/10 03:18:03;;;;;;;76.97;23.38;;;-1.50;99.90;;;;;;5057465;28;20057;-76
2022/12/10 03:20:32;;;;;;;77.50;24.20;;;-1.50;99.90;;;;;;5041030;28;20056;-77
2022/12/10 03:22:59;;;;;;;79.82;23.48;;;-1.50;99.90;;;;;;5057467;28;20087;-77
2022/12/10 03:25:29;;;;;;;80.53;24.15;;;-1.50;99.90;;;;;;5041500;28;20044;-77
2022/12/10 03:27:56;;;;;;;79.68;25.30;;;-1.40;99.90;;;;;;5040536;28;20068;-75
2022/12/10 03:30:23;;;;;;;74.85;24.50;;;-1.40;99.90;;;;;;5040838;28;20098;-76
2022/12/10 03:32:50;;;;;;;77.95;24.52;;;-1.40;99.90;;;;;;5041141;28;20040;-78
2022/12/10 03:35:18;;;;;;;85.43;25.63;;;-0.50;99.90;;;;;;5058497;28;20053;-78
2022/12/10 03:37:45;;;;;;;83.68;25.48;;;-1.40;99.90;;;;;;5041637;28;20087;-77
2022/12/10 03:40:12;;;;;;;81.88;24.85;;;-1.40;99.90;;;;;;5041215;28;20491;-77
2022/12/10 03:42:38;;;;;;;83.00;25.75;;;-1.40;99.90;;;;;;5075393;28;20036;-78
2022/12/10 03:45:05;;;;;;;78.88;24.88;;;-1.20;99.90;;;;;;5041324;28;20135;-77
2022/12/10 03:47:31;;;;;;;86.78;26.52;;;-1.30;99.90;;;;;;5057570;28;20052;-76
2022/12/10 03:49:56;;;;;;;78.95;24.02;;;-1.30;99.90;;;;;;5057420;28;20483;-76
2022/12/10 03:52:22;;;;;;;88.30;27.30;;;-1.20;99.90;;;;;;5040910;28;20509;-76
2022/12/10 03:54:48;;;;;;;85.85;26.60;;;-1.10;99.90;;;;;;5024683;28;20049;-76
2022/12/10 03:57:14;;;;;;;88.00;27.48;;;-1.10;99.90;;;;;;5057169;28;20068;-76
2022/12/10 03:59:40;;;;;;;83.60;24.60;;;-1.00;99.90;;;;;;5041054;28;20083;-78
2022/12/10 04:02:06;;;;;;;85.78;26.77;;;-0.10;99.90;;;;;;5040435;28;20044;-77
2022/12/10 04:04:32;;;;;;;92.68;26.85;;;-1.00;99.90;;;;;;5024383;28;20049;-77
2022/12/10 04:06:58;;;;;;;83.25;26.17;;;-1.00;99.90;;;;;;5057064;28;20056;-76
2022/12/10 04:09:24;;;;;;;75.85;25.77;;;-1.00;99.90;;;;;;5040814;28;20481;-76
2022/12/10 04:11:54;;;;;;;88.32;27.00;;;-1.00;99.90;;;;;;5057614;28;20037;-77
2022/12/10 04:17:05;;;;;;;83.78;26.45;;;0.20;99.90;;;;;;5030023;28;20406;-77
2022/12/10 04:19:30;;;;;;;76.15;24.23;;;-1.00;99.90;;;;;;5024679;28;20052;-75
2022/12/10 04:27:31;;;;;;;79.50;26.30;;;-1.20;99.90;;;;;;5058030;28;20044;-76
2022/12/10 04:29:58;;;;;;;73.63;23.50;;;-1.20;99.90;;;;;;5057846;28;20135;-76
2022/12/10 04:32:26;;;;;;;81.45;26.08;;;-1.20;99.90;;;;;;5042207;28;20048;-77
2022/12/10 04:34:52;;;;;;;81.18;25.85;;;-1.20;99.90;;;;;;5041802;28;20111;-79
2022/12/10 04:37:18;;;;;;;80.60;26.45;;;-1.20;99.90;;;;;;5041602;28;20052;-79
2022/12/10 04:39:45;;;;;;;85.80;26.52;;;-0.50;99.90;;;;;;5042176;28;20177;-79
2022/12/10 04:42:11;;;;;;;87.03;25.83;;;-1.20;99.90;;;;;;5041256;28;20496;-77
2022/12/10 04:44:37;;;;;;;83.45;27.08;;;-1.20;99.90;;;;;;5041511;28;20052;-77
2022/12/10 04:47:04;;;;;;;83.68;27.67;;;-1.20;99.90;;;;;;5041771;28;20052;-76
2022/12/10 04:49:30;;;;;;;90.25;28.77;;;-1.20;99.90;;;;;;5041388;28;20041;-76
2022/12/10 04:51:56;;;;;;;85.93;28.35;;;-1.10;99.90;;;;;;5057841;28;20189;-76
2022/12/10 04:54:22;;;;;;;88.43;27.85;;;-0.70;99.90;;;;;;5041780;28;20068;-80
2022/12/10 04:56:48;;;;;;;87.80;26.83;;;-1.10;99.90;;;;;;5041741;28;20044;-81
2022/12/10 04:59:15;;;;;;;88.82;28.75;;;-1.10;99.90;;;;;;5024986;28;20052;-78
2022/12/10 05:01:41;;;;;;;88.35;28.63;;;-1.10;99.90;;;;;;5039585;28;20048;-79
2022/12/10 05:04:10;;;;;;;86.55;28.05;;;-1.10;99.90;;;;;;5039261;28;20562;-79
2022/12/10 05:06:36;;;;;;;78.93;25.73;;;-1.10;99.90;;;;;;5057882;28;20056;-79
2022/12/10 05:09:03;;;;;;;94.30;28.00;;;-1.10;99.90;;;;;;5024978;28;20052;-78
2022/12/10 05:11:31;;;;;;;91.18;27.88;;;-1.10;99.90;;;;;;5041616;28;20049;-78
2022/12/10 05:13:58;;;;;;;82.15;27.42;;;-1.20;99.90;;;;;;5041368;28;20136;-77
2022/12/10 05:16:27;;;;;;;87.30;27.15;;;0.00;99.90;;;;;;5041349;28;20040;-75
2022/12/10 05:18:54;;;;;;;85.13;28.45;;;-1.30;99.90;;;;;;5058278;28;20052;-78
2022/12/10 05:21:21;;;;;;;84.97;28.05;;;-1.30;99.90;;;;;;5024916;28;20102;-77
2022/12/10 05:23:50;;;;;;;89.22;27.50;;;-1.30;99.90;;;;;;5023756;28;20036;-78
2022/12/10 05:26:22;;;;;;;100.45;29.65;;;-1.30;99.90;;;;;;5040203;28;20051;-78
2022/12/10 05:28:51;;;;;;;92.47;27.67;;;-1.40;99.90;;;;;;5040615;28;20044;-77
2022/12/10 05:31:21;;;;;;;93.10;30.02;;;-0.90;99.90;;;;;;5040708;28;20045;-76
2022/12/10 05:33:47;;;;;;;95.47;29.25;;;-1.40;99.90;;;;;;5040938;28;20106;-77
2022/12/10 05:36:15;;;;;;;89.03;27.85;;;-1.40;99.90;;;;;;5040945;28;20437;-76
2022/12/10 05:38:42;;;;;;;94.50;30.23;;;-1.40;99.90;;;;;;5043745;28;20125;-76
2022/12/10 05:41:19;;;;;;;102.45;30.70;;;-1.40;99.90;;;;;;5044969;28;20044;-75
2022/12/10 05:43:45;;;;;;;93.18;28.88;;;-1.40;99.90;;;;;;5061237;28;20075;-76
2022/12/10 05:46:19;;;;;;;92.03;29.60;;;-1.50;99.90;;;;;;5044676;28;20063;-76
2022/12/10 05:48:45;;;;;;;91.55;28.60;;;-1.50;99.90;;;;;;5063462;28;20054;-75
2022/12/10 05:51:14;;;;;;;87.38;27.95;;;-1.60;99.90;;;;;;5063478;28;20510;-77
2022/12/10 05:53:40;;;;;;;93.75;28.77;;;-1.60;99.90;;;;;;5064233;28;20055;-78
2022/12/10 05:56:09;;;;;;;104.72;30.42;;;-0.90;99.90;;;;;;5063678;28;20508;-77
2022/12/10 05:58:36;;;;;;;92.85;29.35;;;-1.60;99.90;;;;;;5064090;28;20078;-78
2022/12/10 06:01:08;;;;;;;93.03;29.35;;;-1.70;99.90;;;;;;5047403;28;20055;-77
2022/12/10 06:03:34;;;;;;;83.97;26.90;;;-1.70;99.90;;;;;;5046483;28;20080;-77
2022/12/10 06:06:00;;;;;;;100.68;30.50;;;-1.70;99.90;;;;;;5063895;28;20044;-77
2022/12/10 06:08:26;;;;;;;101.85;31.85;;;-1.70;99.90;;;;;;5046745;28;20486;-76
2022/12/10 06:10:53;;;;;;;103.28;29.70;;;-1.70;99.90;;;;;;5062869;28;20052;-77
2022/12/10 06:13:20;;;;;;;107.47;32.00;;;-0.90;99.90;;;;;;5080449;28;20382;-79
2022/12/10 06:15:46;;;;;;;102.43;31.02;;;-1.80;99.90;;;;;;5063985;28;20502;-79
2022/12/10 06:18:12;;;;;;;112.88;32.13;;;-1.70;99.90;;;;;;5080087;28;20048;-80
2022/12/10 06:20:39;;;;;;;107.18;31.55;;;-0.80;99.90;;;;;;5047405;28;20083;-79
2022/12/10 06:23:06;;;;;;;105.55;31.42;;;-1.70;99.90;;;;;;5063932;28;20135;-79
2022/12/10 06:25:32;;;;;;;108.70;32.60;;;-1.70;99.90;;;;;;5064081;28;20059;-79
2022/12/10 06:27:58;;;;;;;95.10;28.10;;;-0.60;99.90;;;;;;5063780;28;20044;-79
2022/12/10 06:30:24;;;;;;;101.43;30.20;;;-1.70;99.90;;;;;;5098044;28;20056;-78
2022/12/10 06:32:50;;;;;;;104.00;29.77;;;-1.80;99.90;;;;;;5080054;28;20044;-78
2022/12/10 06:35:16;;;;;;;108.63;31.10;;;-0.90;99.90;;;;;;5080481;28;20040;-78
2022/12/10 06:37:42;;;;;;;99.97;30.58;;;-1.70;99.90;;;;;;5046694;28;20632;-78
2022/12/10 06:40:08;;;;;;;99.03;31.10;;;-0.90;99.90;;;;;;5046385;28;20431;-78
2022/12/10 06:42:34;;;;;;;103.38;31.63;;;-1.70;99.90;;;;;;5098071;28;20119;-78
2022/12/10 06:45:00;;;;;;;106.18;32.75;;;-1.80;99.90;;;;;;5063078;28;20082;-78
2022/12/10 06:47:26;;;;;;;108.57;32.53;;;-1.80;99.90;;;;;;5046043;28;20087;-78
2022/12/10 06:49:52;;;;;;;117.15;32.15;;;-1.80;99.90;;;;;;5029875;28;20055;-80
2022/12/10 06:52:18;;;;;;;115.07;31.77;;;-1.10;99.90;;;;;;5047018;28;20048;-80
2022/12/10 06:54:44;;;;;;;103.05;33.47;;;-1.70;99.90;;;;;;5046637;28;20044;-81
2022/12/10 06:57:10;;;;;;;109.95;31.80;;;-1.80;99.90;;;;;;5046502;28;20063;-79
2022/12/10 06:59:36;;;;;;;111.28;31.58;;;-1.10;99.90;;;;;;5079106;28;20055;-78
2022/12/10 07:02:01;;;;;;;103.28;30.92;;;-1.80;99.90;;;;;;5030183;28;20090;-76
2022/12/10 07:04:27;;;;;;;106.22;30.45;;;-1.80;99.90;;;;;;5062134;28;20043;-77
2022/12/10 07:06:53;;;;;;;110.03;31.67;;;-1.80;99.90;;;;;;4708762;28;10000128;-76
2022/12/10 07:09:19;;;;;;;106.80;31.23;;;-1.80;99.90;;;;;;5076450;28;20048;-75
2022/12/10 07:11:45;;;;;;;110.40;30.92;;;-1.80;99.90;;;;;;5060236;28;20058;-76
2022/12/10 07:14:15;;;;;;;114.47;32.13;;;-1.70;99.90;;;;;;5060195;28;20402;-77
2022/12/10 07:16:41;;;;;;;107.15;31.30;;;-1.60;99.90;;;;;;5076762;28;20504;-75
2022/12/10 07:19:09;;;;;;;114.90;33.42;;;-1.60;99.90;;;;;;5059440;28;20139;-76
2022/12/10 07:21:36;;;;;;;105.90;31.30;;;-1.60;99.90;;;;;;5059954;28;20107;-78
2022/12/10 07:24:06;;;;;;;109.18;31.25;;;-1.70;99.90;;;;;;5059230;28;20123;-77
2022/12/10 07:26:35;;;;;;;121.63;34.78;;;-1.60;99.90;;;;;;5059601;28;20482;-79
2022/12/10 07:29:02;;;;;;;105.53;31.90;;;-1.60;99.90;;;;;;5059596;28;20087;-78
2022/12/10 07:31:28;;;;;;;108.85;32.63;;;-1.60;99.90;;;;;;5059205;28;20474;-78
2022/12/10 07:33:57;;;;;;;110.72;31.33;;;-1.60;99.90;;;;;;5060536;28;20043;-78
2022/12/10 07:36:23;;;;;;;102.78;31.15;;;-0.50;99.90;;;;;;5077502;28;20052;-78
2022/12/10 07:38:50;;;;;;;110.85;32.10;;;-1.70;99.90;;;;;;5060835;28;20489;-78
2022/12/10 07:41:16;;;;;;;116.85;33.45;;;-1.70;99.90;;;;;;5060842;28;20512;-79
2022/12/10 07:43:44;;;;;;;124.85;37.30;;;-1.70;99.90;;;;;;5043247;28;20044;-78
2022/12/10 07:46:14;;;;;;;106.63;32.47;;;-1.70;99.90;;;;;;5059917;28;20048;-79
2022/12/10 07:48:42;;;;;;;105.00;29.67;;;-1.70;99.90;;;;;;5076882;28;20123;-79
2022/12/10 07:51:08;;;;;;;108.70;31.15;;;-1.70;99.90;;;;;;5060551;28;20126;-78
2022/12/10 07:53:34;;;;;;;106.00;31.00;;;-1.70;99.90;;;;;;5076860;28;20082;-78
2022/12/10 07:56:01;;;;;;;113.18;31.48;;;-1.70;99.90;;;;;;5043268;28;20401;-80
2022/12/10 07:58:27;;;;;;;107.18;30.95;;;-1.70;99.90;;;;;;5059527;28;20054;-78
2022/12/10 08:00:52;;;;;;;113.13;31.17;;;-1.70;99.90;;;;;;5075356;28;20077;-80
2022/12/10 08:03:19;;;;;;;104.97;30.60;;;-1.70;99.90;;;;;;5059861;28;20036;-78
2022/12/10 08:05:45;;;;;;;102.28;30.05;;;-1.80;99.90;;;;;;5059205;28;20100;-79
2022/12/10 08:08:11;;;;;;;105.03;29.77;;;-1.80;99.90;;;;;;5038582;28;20139;-79
2022/12/10 08:10:38;;;;;;;102.15;31.75;;;-1.80;99.90;;;;;;5023505;28;20095;-78
2022/12/10 08:13:06;;;;;;;118.05;31.48;;;-1.70;99.90;;;;;;5035993;28;20648;-78
2022/12/10 08:15:32;;;;;;;113.97;32.70;;;-1.80;99.90;;;;;;5076449;28;20047;-78
2022/12/10 08:17:59;;;;;;;110.32;31.15;;;-1.60;99.90;;;;;;5043085;28;20081;-79
2022/12/10 08:20:25;;;;;;;106.38;32.53;;;-1.70;99.90;;;;;;5043382;28;20048;-79
2022/12/10 08:22:51;;;;;;;111.22;30.77;;;-1.70;99.90;;;;;;5042717;28;20444;-78
2022/12/10 08:25:17;;;;;;;114.80;31.95;;;-0.40;99.90;;;;;;5076098;28;20063;-79
2022/12/10 08:27:43;;;;;;;106.28;31.67;;;-1.60;99.90;;;;;;5058771;28;20048;-77
2022/12/10 08:30:09;;;;;;;119.32;32.75;;;-1.50;99.90;;;;;;5043065;28;20048;-77
2022/12/10 08:32:35;;;;;;;114.00;30.35;;;-1.50;99.90;;;;;;5076087;28;20520;-77
2022/12/10 08:35:01;;;;;;;112.15;31.65;;;-1.40;99.90;;;;;;5043007;28;20132;-76
2022/12/10 08:37:27;;;;;;;115.20;31.95;;;-1.40;99.90;;;;;;5060138;28;20106;-76
2022/12/10 08:39:53;;;;;;;114.47;33.05;;;-1.30;99.90;;;;;;5043745;28;20089;-77
2022/12/10 08:42:19;;;;;;;109.85;32.92;;;-1.20;99.90;;;;;;5060116;28;20052;-77
2022/12/10 08:44:44;;;;;;;118.15;33.95;;;-1.50;99.90;;;;;;5059950;28;20048;-76
2022/12/10 08:47:10;;;;;;;111.63;33.28;;;-1.10;99.90;;;;;;5043390;28;20044;-77
2022/12/10 08:49:36;;;;;;;106.43;32.20;;;-1.10;99.90;;;;;;5043054;28;20044;-76
2022/12/10 08:52:02;;;;;;;122.13;32.80;;;-1.00;99.90;;;;;;5076211;28;20573;-76
2022/12/10 08:54:28;;;;;;;104.43;31.00;;;-1.00;99.90;;;;;;5043127;28;20052;-76
2022/12/10 08:56:54;;;;;;;107.88;31.48;;;-1.00;99.90;;;;;;5059123;28;20494;-76
2022/12/10 08:59:20;;;;;;;106.43;32.10;;;-0.90;99.90;;;;;;5059882;28;20040;-76
2022/12/10 09:01:45;;;;;;;116.03;33.05;;;-0.80;99.90;;;;;;5075313;28;20077;-76
2022/12/10 09:04:12;;;;;;;100.38;32.58;;;-0.70;99.90;;;;;;5042301;28;20047;-76
2022/12/10 09:06:38;;;;;;;103.95;32.03;;;0.30;99.90;;;;;;5042849;28;20051;-79
2022/12/10 09:09:04;;;;;;;100.22;32.50;;;-0.60;99.90;;;;;;5075903;28;20060;-76
2022/12/10 09:11:33;;;;;;;103.10;32.17;;;-0.60;99.90;;;;;;5058802;28;20052;-76
2022/12/10 09:14:00;;;;;;;101.13;32.50;;;-0.50;99.90;;;;;;5060426;28;20051;-76
2022/12/10 09:16:31;;;;;;;109.40;32.05;;;-0.50;99.90;;;;;;5076997;28;20066;-75
2022/12/10 09:18:57;;;;;;;98.78;30.42;;;-0.40;99.90;;;;;;5060215;28;20044;-75
2022/12/10 09:21:23;;;;;;;97.03;30.00;;;-0.40;99.90;;;;;;5060062;28;20058;-75
2022/12/10 09:23:50;;;;;;;94.72;30.60;;;-0.30;99.90;;;;;;5059194;28;20040;-75
2022/12/10 09:26:16;;;;;;;97.65;30.58;;;-0.20;99.90;;;;;;5043632;28;20398;-75
2022/12/10 09:28:43;;;;;;;93.07;29.98;;;-0.20;99.90;;;;;;5076754;28;20044;-75
2022/12/10 09:31:10;;;;;;;97.28;32.00;;;-0.10;99.90;;;;;;5076625;28;20500;-75
2022/12/10 09:33:37;;;;;;;98.00;32.88;;;-0.10;99.90;;;;;;5076416;28;20135;-76
2022/12/10 09:36:06;;;;;;;94.22;29.35;;;0.00;99.90;;;;;;5043104;28;20048;-75
2022/12/10 09:38:38;;;;;;;96.88;30.98;;;0.00;99.90;;;;;;5076671;28;20127;-75
2022/12/10 09:41:07;;;;;;;99.15;30.42;;;0.10;99.90;;;;;;5059750;28;20135;-75
2022/12/10 09:43:54;;;;;;;90.75;29.75;;;0.20;99.90;;;;;;5059604;28;20044;-75
2022/12/10 09:46:48;;;;;;;101.20;32.45;;;0.20;99.90;;;;;;5076511;28;20051;-75
2022/12/10 09:49:32;;;;;;;90.72;28.67;;;0.30;99.90;;;;;;5076159;28;20661;-75
2022/12/10 09:52:01;;;;;;;89.50;31.23;;;0.40;99.90;;;;;;4722518;28;10000328;-76
2022/12/10 09:54:33;;;;;;;93.88;30.75;;;0.50;99.90;;;;;;5056518;28;20678;-76
2022/12/10 09:57:01;;;;;;;93.75;31.02;;;0.60;99.90;;;;;;5073119;28;20423;-75
2022/12/10 09:59:33;;;;;;;91.95;31.85;;;0.70;99.90;;;;;;5058518;28;20040;-75
2022/12/10 10:02:23;;;;;;;89.85;30.75;;;0.70;99.90;;;;;;5059883;28;20126;-75
2022/12/10 10:04:51;;;;;;;85.25;29.42;;;0.70;99.90;;;;;;5059568;28;20055;-76
2022/12/10 10:07:25;;;;;;;90.78;31.08;;;0.70;99.90;;;;;;5076162;28;20108;-76
2022/12/10 10:09:57;;;;;;;89.13;29.90;;;0.70;99.90;;;;;;5059519;28;20050;-76
2022/12/10 10:12:23;;;;;;;72.93;25.25;;;0.80;99.90;;;;;;5059557;28;20074;-76
2022/12/10 10:14:49;;;;;;;87.28;30.95;;;0.80;99.90;;;;;;5059968;28;20047;-75
2022/12/10 10:17:35;;;;;;;93.75;29.65;;;0.90;99.90;;;;;;5076662;28;20056;-76
2022/12/10 10:20:01;;;;;;;88.05;30.40;;;2.00;99.90;;;;;;5060381;28;20048;-76
2022/12/10 10:22:28;;;;;;;84.80;28.45;;;0.90;99.90;;;;;;5042854;28;20154;-76
2022/12/10 10:24:53;;;;;;;87.25;30.98;;;0.90;99.90;;;;;;5075760;28;20048;-76
2022/12/10 10:27:26;;;;;;;80.00;28.70;;;1.00;99.90;;;;;;5076831;28;20050;-76
2022/12/10 10:29:54;;;;;;;88.95;32.08;;;0.90;99.90;;;;;;5076442;28;20573;-74
2022/12/10 10:32:40;;;;;;;83.22;30.17;;;1.00;99.90;;;;;;5060273;28;20083;-75
2022/12/10 10:35:06;;;;;;;88.30;29.20;;;1.70;99.90;;;;;;5075179;28;20146;-75
2022/12/10 10:37:35;;;;;;;90.95;31.75;;;0.80;99.90;;;;;;5042912;28;20044;-75
2022/12/10 10:40:01;;;;;;;84.80;29.20;;;0.80;99.90;;;;;;5075556;28;20134;-76
2022/12/10 10:42:45;;;;;;;81.07;27.67;;;0.80;99.90;;;;;;5076160;28;20048;-75
2022/12/10 10:45:33;;;;;;;76.80;27.15;;;0.90;99.90;;;;;;5059171;28;20074;-75
2022/12/10 10:48:14;;;;;;;64.05;22.50;;;1.50;99.90;;;;;;5035570;28;20089;-75
2022/12/10 10:50:46;;;;;;;84.07;28.47;;;1.00;99.90;;;;;;5076316;28;20405;-75
2022/12/10 10:53:30;;;;;;;85.05;28.83;;;1.10;99.90;;;;;;5059383;28;20313;-75
2022/12/10 10:56:08;;;;;;;86.20;30.27;;;1.10;99.90;;;;;;5073262;28;20135;-75
2022/12/10 10:58:34;;;;;;;85.35;27.10;;;1.00;99.90;;;;;;5076053;28;20097;-76
2022/12/10 11:01:06;;;;;;;71.40;26.80;;;0.90;99.90;;;;;;5058004;28;20048;-76
2022/12/10 11:03:35;;;;;;;89.03;31.88;;;0.80;99.90;;;;;;5058555;28;20044;-76
2022/12/10 11:06:07;;;;;;;86.60;30.67;;;0.80;99.90;;;;;;5075610;28;20070;-76
2022/12/10 11:08:37;;;;;;;75.38;25.88;;;1.00;99.90;;;;;;5075446;28;20090;-76
2022/12/10 11:11:20;;;;;;;82.20;29.20;;;1.00;99.90;;;;;;5058823;28;20044;-75
2022/12/10 11:13:46;;;;;;;75.07;29.25;;;1.10;99.90;;;;;;5057854;28;20107;-76
2022/12/10 11:16:19;;;;;;;76.57;28.60;;;1.10;99.90;;;;;;5075535;28;20044;-75
2022/12/10 11:18:57;;;;;;;81.75;29.80;;;1.20;99.90;;;;;;5059201;28;20109;-76
2022/12/10 11:21:23;;;;;;;77.78;27.85;;;1.20;99.90;;;;;;5076446;28;20075;-76
2022/12/10 11:23:53;;;;;;;80.85;29.40;;;1.20;99.90;;;;;;5055865;28;20032;-75
2022/12/10 11:26:32;;;;;;;77.88;26.77;;;1.20;99.90;;;;;;5058878;28;20470;-76
2022/12/10 11:29:16;;;;;;;78.93;27.83;;;1.20;99.90;;;;;;5058586;28;20113;-79
2022/12/10 11:32:36;;;;;;;86.63;30.08;;;1.10;99.90;;;;;;5058852;28;20044;-77
2022/12/10 11:35:39;;;;;;;84.40;28.63;;;1.00;99.90;;;;;;4973209;28;20058;-77
2022/12/10 11:38:40;;;;;;;86.95;30.67;;;0.90;99.90;;;;;;5074672;28;20052;-77
2022/12/10 11:41:24;;;;;;;81.72;30.50;;;0.90;99.90;;;;;;5057668;28;20402;-76
2022/12/10 11:44:06;;;;;;;98.18;31.42;;;0.90;99.90;;;;;;5073611;28;20472;-76
2022/12/10 11:47:05;;;;;;;118.85;39.97;;;0.90;99.90;;;;;;5073217;28;20079;-77
2022/12/10 11:49:43;;;;;;;138.70;46.72;;;0.90;99.90;;;;;;5057039;28;20048;-77
2022/12/10 11:52:36;;;;;;;89.18;32.42;;;0.90;99.90;;;;;;5073402;28;20055;-77
2022/12/10 11:55:07;;;;;;;91.47;32.63;;;0.90;99.90;;;;;;5057536;28;20052;-76
2022/12/10 11:57:54;;;;;;;90.47;32.50;;;0.90;99.90;;;;;;5049370;28;20058;-74
2022/12/10 12:00:23;;;;;;;84.88;30.48;;;1.00;99.90;;;;;;5058828;28;20055;-76
2022/12/10 12:03:00;;;;;;;93.68;31.73;;;1.00;99.90;;;;;;5057411;28;20051;-75
2022/12/10 12:05:54;;;;;;;81.40;27.52;;;1.00;99.90;;;;;;5073715;28;20162;-77
2022/12/10 12:08:32;;;;;;;95.30;33.40;;;1.10;99.90;;;;;;5056872;28;20059;-78
2022/12/10 12:11:27;;;;;;;95.43;31.98;;;1.10;99.90;;;;;;5058077;28;20048;-75
2022/12/10 12:14:02;;;;;;;91.22;31.13;;;1.10;99.90;;;;;;5074635;28;20498;-77
2022/12/10 12:16:38;;;;;;;87.07;29.90;;;1.10;99.90;;;;;;5058104;28;20079;-76
2022/12/10 12:19:12;;;;;;;89.57;31.25;;;1.40;99.90;;;;;;5075582;28;20164;-75
2022/12/10 12:21:40;;;;;;;86.65;30.95;;;1.10;99.90;;;;;;5058493;28;20134;-76
2022/12/10 12:24:25;;;;;;;87.03;30.13;;;1.00;99.90;;;;;;5073801;28;20044;-76
2022/12/10 12:27:22;;;;;;;91.95;31.80;;;1.00;99.90;;;;;;5058242;28;20075;-77
2022/12/10 12:30:00;;;;;;;94.95;30.42;;;1.00;99.90;;;;;;5066302;28;20052;-75
2022/12/10 12:32:46;;;;;;;92.43;31.77;;;1.00;99.90;;;;;;5056800;28;20059;-77
2022/12/10 12:35:19;;;;;;;94.47;29.92;;;1.00;99.90;;;;;;5073271;28;20498;-76
2022/12/10 12:37:59;;;;;;;95.70;30.60;;;1.00;99.90;;;;;;5073742;28;20052;-76
2022/12/10 12:40:43;;;;;;;92.63;32.17;;;1.80;99.90;;;;;;5050609;28;20113;-76
2022/12/10 12:43:15;;;;;;;90.05;31.55;;;1.00;99.90;;;;;;5052777;28;20044;-80
2022/12/10 12:45:45;;;;;;;94.28;32.50;;;1.00;99.90;;;;;;5036305;28;20063;-77
2022/12/10 12:48:28;;;;;;;104.93;33.88;;;1.00;99.90;;;;;;5035742;28;20131;-76
2022/12/10 12:51:18;;;;;;;88.65;28.25;;;1.00;99.90;;;;;;5058189;28;20075;-77